sensor_id;sensor_type;location;lat;lon;timestamp;temperature;humidity
12446;DHT22;6287;50.984;7.022;2023-05-10T00:01:12;13.60;99.90
12446;DHT22;6287;50.984;7.022;2023-05-10T00:03:38;14.20;99.90
12446;DHT22;6287;50.984;7.022;2023-05-10T00:06:06;13.50;99.90
12446;DHT22;6287;50.984;7.022;2023-05-10T00:08:36;13.50;99.90
12446;DHT22;6287;50.984;7.022;2023-05-10T00:11:02;13.50;99.90
12446;DHT22;6287;50.984;7.022;2023-05-10T00:13:30;13.60;99.90
12446;DHT22;6287;50.984;7.022;2023-05-10T00:15:56;13.50;99.90
12446;DHT22;6287;50.984;7.022;2023-05-10T00:18:21;13.50;99.90
12446;DHT22;6287;50.984;7.022;2023-05-10T00:20:47;13.60;99.90
12446;DHT22;6287;50.984;7.022;2023-05-10T00:23:14;14.00;99.90
12446;DHT22;6287;50.984;7.022;2023-05-10T00:25:39;14.10;99.90
12446;DHT22;6287;50.984;7.022;2023-05-10T00:28:07;13.50;99.90
12446;DHT22;6287;50.984;7.022;2023-05-10T00:30:33;13.60;99.90
12446;DHT22;6287;50.984;7.022;2023-05-10T00:32:58;14.00;99.90
12446;DHT22;6287;50.984;7.022;2023-05-10T00:35:26;13.60;99.90
12446;DHT22;6287;50.984;7.022;2023-05-10T00:37:52;13.80;99.90
12446;DHT22;6287;50.984;7.022;2023-05-10T00:40:18;13.80;99.90
12446;DHT22;6287;50.984;7.022;2023-05-10T00:42:45;15.00;99.90
12446;DHT22;6287;50.984;7.022;2023-05-10T00:45:11;13.80;99.90
12446;DHT22;6287;50.984;7.022;2023-05-10T00:47:42;14.00;99.90
12446;DHT22;6287;50.984;7.022;2023-05-10T00:50:08;14.70;99.90
12446;DHT22;6287;50.984;7.022;2023-05-10T00:52:34;13.50;99.90
12446;DHT22;6287;50.984;7.022;2023-05-10T00:55:04;13.80;99.90
12446;DHT22;6287;50.984;7.022;2023-05-10T00:57:31;13.50;99.90
12446;DHT22;6287;50.984;7.022;2023-05-10T00:59:57;14.20;99.90
12446;DHT22;6287;50.984;7.022;2023-05-10T01:02:24;13.80;99.90
12446;DHT22;6287;50.984;7.022;2023-05-10T01:04:55;14.30;99.90
12446;DHT22;6287;50.984;7.022;2023-05-10T01:07:20;13.80;99.90
12446;DHT22;6287;50.984;7.022;2023-05-10T01:13:11;13.80;99.90
12446;DHT22;6287;50.984;7.022;2023-05-10T01:15:40;14.10;99.90
12446;DHT22;6287;50.984;7.022;2023-05-10T01:18:08;13.90;99.90
12446;DHT22;6287;50.984;7.022;2023-05-10T01:20:44;14.00;99.90
12446;DHT22;6287;50.984;7.022;2023-05-10T01:34:35;13.60;99.90
12446;DHT22;6287;50.984;7.022;2023-05-10T01:37:10;14.50;99.90
12446;DHT22;6287;50.984;7.022;2023-05-10T01:39:47;13.60;99.90
12446;DHT22;6287;50.984;7.022;2023-05-10T01:42:23;13.80;99.90
12446;DHT22;6287;50.984;7.022;2023-05-10T01:47:41;13.60;99.90
12446;DHT22;6287;50.984;7.022;2023-05-10T01:50:22;13.80;99.90
12446;DHT22;6287;50.984;7.022;2023-05-10T01:52:51;13.60;99.90
12446;DHT22;6287;50.984;7.022;2023-05-10T01:55:21;14.20;99.90
12446;DHT22;6287;50.984;7.022;2023-05-10T01:57:52;13.90;99.90
12446;DHT22;6287;50.984;7.022;2023-05-10T02:00:20;14.00;99.90
12446;DHT22;6287;50.984;7.022;2023-05-10T02:02:51;13.60;99.90
12446;DHT22;6287;50.984;7.022;2023-05-10T02:05:20;14.20;99.90
12446;DHT22;6287;50.984;7.022;2023-05-10T02:07:47;13.80;99.90
12446;DHT22;6287;50.984;7.022;2023-05-10T02:10:16;14.20;99.90
12446;DHT22;6287;50.984;7.022;2023-05-10T02:12:44;13.90;99.90
12446;DHT22;6287;50.984;7.022;2023-05-10T02:15:18;13.50;99.90
12446;DHT22;6287;50.984;7.022;2023-05-10T02:17:52;13.90;99.90
12446;DHT22;6287;50.984;7.022;2023-05-10T02:20:20;13.50;99.90
12446;DHT22;6287;50.984;7.022;2023-05-10T02:22:50;13.50;99.90
12446;DHT22;6287;50.984;7.022;2023-05-10T02:25:20;14.10;99.90
12446;DHT22;6287;50.984;7.022;2023-05-10T02:27:47;13.50;99.90
12446;DHT22;6287;50.984;7.022;2023-05-10T02:30:13;13.50;99.90
12446;DHT22;6287;50.984;7.022;2023-05-10T02:32:45;13.60;99.90
12446;DHT22;6287;50.984;7.022;2023-05-10T02:35:11;13.80;99.90
12446;DHT22;6287;50.984;7.022;2023-05-10T02:37:38;13.70;99.90
12446;DHT22;6287;50.984;7.022;2023-05-10T02:40:05;13.50;99.90
12446;DHT22;6287;50.984;7.022;2023-05-10T02:42:37;13.50;99.90
12446;DHT22;6287;50.984;7.022;2023-05-10T02:45:07;13.60;99.90
12446;DHT22;6287;50.984;7.022;2023-05-10T02:47:33;13.50;99.90
12446;DHT22;6287;50.984;7.022;2023-05-10T02:49:59;13.90;99.90
12446;DHT22;6287;50.984;7.022;2023-05-10T02:52:30;13.70;99.90
12446;DHT22;6287;50.984;7.022;2023-05-10T02:55:02;13.50;99.90
12446;DHT22;6287;50.984;7.022;2023-05-10T02:57:33;13.80;99.90
12446;DHT22;6287;50.984;7.022;2023-05-10T02:59:59;13.40;99.90
12446;DHT22;6287;50.984;7.022;2023-05-10T03:02:28;13.50;99.90
12446;DHT22;6287;50.984;7.022;2023-05-10T03:04:55;14.10;99.90
12446;DHT22;6287;50.984;7.022;2023-05-10T03:07:23;14.10;99.90
12446;DHT22;6287;50.984;7.022;2023-05-10T03:09:52;14.00;99.90
12446;DHT22;6287;50.984;7.022;2023-05-10T03:12:31;14.80;99.90
12446;DHT22;6287;50.984;7.022;2023-05-10T03:18:00;13.40;99.90
12446;DHT22;6287;50.984;7.022;2023-05-10T03:20:35;13.50;99.90
12446;DHT22;6287;50.984;7.022;2023-05-10T03:25:43;13.50;99.90
12446;DHT22;6287;50.984;7.022;2023-05-10T03:28:12;14.10;99.90
12446;DHT22;6287;50.984;7.022;2023-05-10T03:30:38;13.70;99.90
12446;DHT22;6287;50.984;7.022;2023-05-10T03:33:07;13.90;99.90
12446;DHT22;6287;50.984;7.022;2023-05-10T03:35:36;14.10;99.90
12446;DHT22;6287;50.984;7.022;2023-05-10T03:38:07;13.60;99.90
12446;DHT22;6287;50.984;7.022;2023-05-10T03:40:32;13.60;99.90
12446;DHT22;6287;50.984;7.022;2023-05-10T03:42:58;13.40;99.90
12446;DHT22;6287;50.984;7.022;2023-05-10T03:45:25;14.40;99.90
12446;DHT22;6287;50.984;7.022;2023-05-10T03:47:50;13.50;99.90
12446;DHT22;6287;50.984;7.022;2023-05-10T03:50:18;14.80;99.90
12446;DHT22;6287;50.984;7.022;2023-05-10T03:52:44;13.50;99.90
12446;DHT22;6287;50.984;7.022;2023-05-10T03:55:10;13.70;99.90
12446;DHT22;6287;50.984;7.022;2023-05-10T03:57:41;13.80;99.90
12446;DHT22;6287;50.984;7.022;2023-05-10T04:00:12;13.90;99.90
12446;DHT22;6287;50.984;7.022;2023-05-10T04:02:38;13.50;99.90
12446;DHT22;6287;50.984;7.022;2023-05-10T04:05:06;13.60;99.90
12446;DHT22;6287;50.984;7.022;2023-05-10T04:07:32;13.60;99.90
12446;DHT22;6287;50.984;7.022;2023-05-10T04:09:57;14.20;99.90
12446;DHT22;6287;50.984;7.022;2023-05-10T04:12:23;13.60;99.90
12446;DHT22;6287;50.984;7.022;2023-05-10T04:14:49;14.00;99.90
12446;DHT22;6287;50.984;7.022;2023-05-10T04:17:14;14.10;99.90
12446;DHT22;6287;50.984;7.022;2023-05-10T04:19:42;13.80;99.90
12446;DHT22;6287;50.984;7.022;2023-05-10T04:22:08;13.90;99.90
12446;DHT22;6287;50.984;7.022;2023-05-10T04:24:33;13.90;99.90
12446;DHT22;6287;50.984;7.022;2023-05-10T04:26:59;13.90;99.90
12446;DHT22;6287;50.984;7.022;2023-05-10T04:29:24;14.00;99.90
12446;DHT22;6287;50.984;7.022;2023-05-10T04:31:57;13.70;99.90
12446;DHT22;6287;50.984;7.022;2023-05-10T04:34:23;14.10;99.90
12446;DHT22;6287;50.984;7.022;2023-05-10T04:36:50;14.30;99.90
12446;DHT22;6287;50.984;7.022;2023-05-10T04:39:16;13.70;99.90
12446;DHT22;6287;50.984;7.022;2023-05-10T04:41:41;13.60;99.90
12446;DHT22;6287;50.984;7.022;2023-05-10T04:44:07;13.50;99.90
12446;DHT22;6287;50.984;7.022;2023-05-10T04:46:32;13.60;99.90
12446;DHT22;6287;50.984;7.022;2023-05-10T04:49:00;13.60;99.90
12446;DHT22;6287;50.984;7.022;2023-05-10T04:51:33;13.90;99.90
12446;DHT22;6287;50.984;7.022;2023-05-10T04:53:58;14.40;99.90
12446;DHT22;6287;50.984;7.022;2023-05-10T04:56:29;13.80;99.90
12446;DHT22;6287;50.984;7.022;2023-05-10T04:58:56;13.70;99.90
12446;DHT22;6287;50.984;7.022;2023-05-10T05:01:22;14.10;99.90
12446;DHT22;6287;50.984;7.022;2023-05-10T05:03:48;13.60;99.90
12446;DHT22;6287;50.984;7.022;2023-05-10T05:06:16;13.40;99.90
12446;DHT22;6287;50.984;7.022;2023-05-10T05:08:44;14.30;99.90
12446;DHT22;6287;50.984;7.022;2023-05-10T05:11:14;13.90;99.90
12446;DHT22;6287;50.984;7.022;2023-05-10T05:13:40;13.70;99.90
12446;DHT22;6287;50.984;7.022;2023-05-10T05:16:06;13.80;99.90
12446;DHT22;6287;50.984;7.022;2023-05-10T05:18:33;13.80;99.90
12446;DHT22;6287;50.984;7.022;2023-05-10T05:20:59;14.20;99.90
12446;DHT22;6287;50.984;7.022;2023-05-10T05:23:31;14.30;99.90
12446;DHT22;6287;50.984;7.022;2023-05-10T05:25:57;13.90;99.90
12446;DHT22;6287;50.984;7.022;2023-05-10T05:28:27;13.90;99.90
12446;DHT22;6287;50.984;7.022;2023-05-10T05:30:58;14.20;99.90
12446;DHT22;6287;50.984;7.022;2023-05-10T05:33:26;14.30;99.90
12446;DHT22;6287;50.984;7.022;2023-05-10T05:35:51;14.60;99.90
12446;DHT22;6287;50.984;7.022;2023-05-10T05:38:17;14.10;99.90
12446;DHT22;6287;50.984;7.022;2023-05-10T05:40:45;14.10;99.90
12446;DHT22;6287;50.984;7.022;2023-05-10T05:43:18;14.10;99.90
12446;DHT22;6287;50.984;7.022;2023-05-10T05:45:46;14.90;99.90
12446;DHT22;6287;50.984;7.022;2023-05-10T05:48:12;14.80;99.90
12446;DHT22;6287;50.984;7.022;2023-05-10T05:50:39;14.50;99.90
12446;DHT22;6287;50.984;7.022;2023-05-10T05:53:08;14.20;99.90
12446;DHT22;6287;50.984;7.022;2023-05-10T05:55:36;14.20;99.90
12446;DHT22;6287;50.984;7.022;2023-05-10T05:58:02;14.20;99.90
12446;DHT22;6287;50.984;7.022;2023-05-10T06:00:30;14.50;99.90
12446;DHT22;6287;50.984;7.022;2023-05-10T06:02:59;15.10;99.90
12446;DHT22;6287;50.984;7.022;2023-05-10T06:05:25;14.70;99.90
12446;DHT22;6287;50.984;7.022;2023-05-10T06:07:53;14.20;99.90
12446;DHT22;6287;50.984;7.022;2023-05-10T06:10:23;14.50;99.90
12446;DHT22;6287;50.984;7.022;2023-05-10T06:12:51;14.40;99.90
12446;DHT22;6287;50.984;7.022;2023-05-10T06:15:18;14.40;99.90
12446;DHT22;6287;50.984;7.022;2023-05-10T06:17:43;14.80;99.90
12446;DHT22;6287;50.984;7.022;2023-05-10T06:20:12;14.70;99.90
12446;DHT22;6287;50.984;7.022;2023-05-10T06:22:38;14.40;99.90
12446;DHT22;6287;50.984;7.022;2023-05-10T06:25:04;14.50;99.90
12446;DHT22;6287;50.984;7.022;2023-05-10T06:27:29;14.40;99.90
12446;DHT22;6287;50.984;7.022;2023-05-10T06:30:02;14.90;99.90
12446;DHT22;6287;50.984;7.022;2023-05-10T06:32:28;14.40;99.90
12446;DHT22;6287;50.984;7.022;2023-05-10T06:34:54;15.40;99.90
12446;DHT22;6287;50.984;7.022;2023-05-10T06:37:19;14.40;99.90
12446;DHT22;6287;50.984;7.022;2023-05-10T06:39:48;14.70;99.90
12446;DHT22;6287;50.984;7.022;2023-05-10T06:42:13;15.20;99.90
12446;DHT22;6287;50.984;7.022;2023-05-10T06:44:39;14.30;99.90
12446;DHT22;6287;50.984;7.022;2023-05-10T06:47:07;15.00;99.90
12446;DHT22;6287;50.984;7.022;2023-05-10T06:49:32;14.50;99.90
12446;DHT22;6287;50.984;7.022;2023-05-10T06:51:58;14.50;99.90
12446;DHT22;6287;50.984;7.022;2023-05-10T06:54:29;14.30;99.90
12446;DHT22;6287;50.984;7.022;2023-05-10T06:56:57;14.50;99.90
12446;DHT22;6287;50.984;7.022;2023-05-10T06:59:29;14.20;99.90
12446;DHT22;6287;50.984;7.022;2023-05-10T07:01:57;14.10;99.90
12446;DHT22;6287;50.984;7.022;2023-05-10T07:04:23;14.80;99.90
12446;DHT22;6287;50.984;7.022;2023-05-10T07:06:51;14.20;99.90
12446;DHT22;6287;50.984;7.022;2023-05-10T07:09:19;14.60;99.90
12446;DHT22;6287;50.984;7.022;2023-05-10T07:11:47;14.70;99.90
12446;DHT22;6287;50.984;7.022;2023-05-10T07:14:17;14.20;99.90
12446;DHT22;6287;50.984;7.022;2023-05-10T07:16:43;14.60;99.90
12446;DHT22;6287;50.984;7.022;2023-05-10T07:19:10;14.40;99.90
12446;DHT22;6287;50.984;7.022;2023-05-10T07:21:38;14.50;99.90
12446;DHT22;6287;50.984;7.022;2023-05-10T07:24:05;14.60;99.90
12446;DHT22;6287;50.984;7.022;2023-05-10T07:26:31;14.20;99.90
12446;DHT22;6287;50.984;7.022;2023-05-10T07:28:59;14.50;99.90
12446;DHT22;6287;50.984;7.022;2023-05-10T07:31:27;14.30;99.90
12446;DHT22;6287;50.984;7.022;2023-05-10T07:33:57;14.50;99.90
12446;DHT22;6287;50.984;7.022;2023-05-10T07:36:25;14.40;99.90
12446;DHT22;6287;50.984;7.022;2023-05-10T07:38:50;14.40;99.90
12446;DHT22;6287;50.984;7.022;2023-05-10T07:41:16;14.70;99.90
12446;DHT22;6287;50.984;7.022;2023-05-10T07:43:44;15.10;99.90
12446;DHT22;6287;50.984;7.022;2023-05-10T07:46:09;14.70;99.90
12446;DHT22;6287;50.984;7.022;2023-05-10T07:48:37;14.70;99.90
12446;DHT22;6287;50.984;7.022;2023-05-10T07:51:05;14.80;99.90
12446;DHT22;6287;50.984;7.022;2023-05-10T07:53:32;14.80;99.90
12446;DHT22;6287;50.984;7.022;2023-05-10T07:55:58;14.80;99.90
12446;DHT22;6287;50.984;7.022;2023-05-10T07:58:26;15.10;99.90
12446;DHT22;6287;50.984;7.022;2023-05-10T08:00:54;14.80;99.90
12446;DHT22;6287;50.984;7.022;2023-05-10T08:03:20;14.70;99.90
12446;DHT22;6287;50.984;7.022;2023-05-10T08:05:48;14.80;99.90
12446;DHT22;6287;50.984;7.022;2023-05-10T08:08:13;14.70;99.90
12446;DHT22;6287;50.984;7.022;2023-05-10T08:10:39;15.00;99.90
12446;DHT22;6287;50.984;7.022;2023-05-10T08:13:07;14.60;99.90
12446;DHT22;6287;50.984;7.022;2023-05-10T08:15:34;15.00;99.90
12446;DHT22;6287;50.984;7.022;2023-05-10T08:18:02;14.80;99.90
12446;DHT22;6287;50.984;7.022;2023-05-10T08:20:31;15.10;99.90
12446;DHT22;6287;50.984;7.022;2023-05-10T08:22:57;15.20;99.90
12446;DHT22;6287;50.984;7.022;2023-05-10T08:25:22;15.60;99.90
12446;DHT22;6287;50.984;7.022;2023-05-10T08:27:50;15.00;99.90
12446;DHT22;6287;50.984;7.022;2023-05-10T08:30:20;15.10;99.90
12446;DHT22;6287;50.984;7.022;2023-05-10T08:32:46;15.10;99.90
12446;DHT22;6287;50.984;7.022;2023-05-10T08:35:14;15.50;99.90
12446;DHT22;6287;50.984;7.022;2023-05-10T08:37:39;15.40;99.90
12446;DHT22;6287;50.984;7.022;2023-05-10T08:40:08;15.70;99.90
12446;DHT22;6287;50.984;7.022;2023-05-10T08:42:39;15.70;99.90
12446;DHT22;6287;50.984;7.022;2023-05-10T08:45:07;16.20;99.90
12446;DHT22;6287;50.984;7.022;2023-05-10T08:47:36;15.60;99.90
12446;DHT22;6287;50.984;7.022;2023-05-10T08:50:03;15.60;99.90
12446;DHT22;6287;50.984;7.022;2023-05-10T08:52:30;15.70;99.90
12446;DHT22;6287;50.984;7.022;2023-05-10T08:54:56;16.40;99.90
12446;DHT22;6287;50.984;7.022;2023-05-10T08:57:25;16.20;99.90
12446;DHT22;6287;50.984;7.022;2023-05-10T08:59:52;15.70;99.90
12446;DHT22;6287;50.984;7.022;2023-05-10T09:02:20;15.70;99.90
12446;DHT22;6287;50.984;7.022;2023-05-10T09:04:46;15.60;99.90
12446;DHT22;6287;50.984;7.022;2023-05-10T09:07:12;15.60;99.90
12446;DHT22;6287;50.984;7.022;2023-05-10T09:09:38;15.90;99.90
12446;DHT22;6287;50.984;7.022;2023-05-10T09:12:03;15.60;99.90
12446;DHT22;6287;50.984;7.022;2023-05-10T09:14:30;15.60;99.90
12446;DHT22;6287;50.984;7.022;2023-05-10T09:16:56;15.70;99.90
12446;DHT22;6287;50.984;7.022;2023-05-10T09:19:22;16.20;99.90
12446;DHT22;6287;50.984;7.022;2023-05-10T09:21:51;15.80;99.90
12446;DHT22;6287;50.984;7.022;2023-05-10T09:24:16;15.60;99.90
12446;DHT22;6287;50.984;7.022;2023-05-10T09:26:50;15.80;99.90
12446;DHT22;6287;50.984;7.022;2023-05-10T09:29:16;15.90;99.90
12446;DHT22;6287;50.984;7.022;2023-05-10T09:34:31;16.10;99.90
12446;DHT22;6287;50.984;7.022;2023-05-10T09:36:59;16.10;99.90
12446;DHT22;6287;50.984;7.022;2023-05-10T09:39:38;16.20;99.90
12446;DHT22;6287;50.984;7.022;2023-05-10T09:42:08;16.10;99.90
12446;DHT22;6287;50.984;7.022;2023-05-10T09:44:35;16.10;99.90
12446;DHT22;6287;50.984;7.022;2023-05-10T09:47:05;16.10;99.90
12446;DHT22;6287;50.984;7.022;2023-05-10T09:49:31;16.30;99.90
12446;DHT22;6287;50.984;7.022;2023-05-10T09:52:04;16.00;99.90
12446;DHT22;6287;50.984;7.022;2023-05-10T09:54:33;16.00;99.90
12446;DHT22;6287;50.984;7.022;2023-05-10T09:57:02;16.10;99.90
12446;DHT22;6287;50.984;7.022;2023-05-10T09:59:28;16.20;99.90
12446;DHT22;6287;50.984;7.022;2023-05-10T10:01:57;16.60;99.90
12446;DHT22;6287;50.984;7.022;2023-05-10T10:04:23;17.20;99.90
12446;DHT22;6287;50.984;7.022;2023-05-10T10:07:05;16.80;99.90
12446;DHT22;6287;50.984;7.022;2023-05-10T10:09:34;16.90;99.90
12446;DHT22;6287;50.984;7.022;2023-05-10T10:12:00;16.80;99.90
12446;DHT22;6287;50.984;7.022;2023-05-10T10:14:29;17.50;99.90
12446;DHT22;6287;50.984;7.022;2023-05-10T10:17:00;16.70;99.90
12446;DHT22;6287;50.984;7.022;2023-05-10T10:19:26;16.50;99.90
12446;DHT22;6287;50.984;7.022;2023-05-10T10:21:52;16.40;99.90
12446;DHT22;6287;50.984;7.022;2023-05-10T10:24:17;16.60;99.90
12446;DHT22;6287;50.984;7.022;2023-05-10T10:26:46;16.80;99.90
12446;DHT22;6287;50.984;7.022;2023-05-10T10:29:20;16.90;99.90
12446;DHT22;6287;50.984;7.022;2023-05-10T10:32:12;16.90;99.90
12446;DHT22;6287;50.984;7.022;2023-05-10T10:34:47;17.10;99.90
12446;DHT22;6287;50.984;7.022;2023-05-10T10:37:12;17.30;99.90
12446;DHT22;6287;50.984;7.022;2023-05-10T10:39:40;17.50;99.90
12446;DHT22;6287;50.984;7.022;2023-05-10T10:42:08;18.10;99.90
12446;DHT22;6287;50.984;7.022;2023-05-10T10:44:39;18.20;99.90
12446;DHT22;6287;50.984;7.022;2023-05-10T10:50:02;18.70;99.90
12446;DHT22;6287;50.984;7.022;2023-05-10T10:55:17;19.10;99.90
12446;DHT22;6287;50.984;7.022;2023-05-10T11:08:02;20.80;99.90
12446;DHT22;6287;50.984;7.022;2023-05-10T11:10:31;20.40;99.90
12446;DHT22;6287;50.984;7.022;2023-05-10T11:13:10;20.10;99.90
12446;DHT22;6287;50.984;7.022;2023-05-10T11:15:39;19.90;99.90
12446;DHT22;6287;50.984;7.022;2023-05-10T11:20:57;19.50;99.90
12446;DHT22;6287;50.984;7.022;2023-05-10T11:23:28;19.30;99.90
12446;DHT22;6287;50.984;7.022;2023-05-10T11:25:54;19.20;99.90
12446;DHT22;6287;50.984;7.022;2023-05-10T11:28:25;18.80;99.90
12446;DHT22;6287;50.984;7.022;2023-05-10T11:30:53;18.40;99.90
12446;DHT22;6287;50.984;7.022;2023-05-10T11:33:22;18.10;99.90
12446;DHT22;6287;50.984;7.022;2023-05-10T11:35:50;17.80;99.90
12446;DHT22;6287;50.984;7.022;2023-05-10T11:38:15;17.60;99.90
12446;DHT22;6287;50.984;7.022;2023-05-10T11:40:41;17.50;99.90
12446;DHT22;6287;50.984;7.022;2023-05-10T11:43:10;17.50;99.90
12446;DHT22;6287;50.984;7.022;2023-05-10T11:45:37;17.70;99.90
12446;DHT22;6287;50.984;7.022;2023-05-10T11:48:02;17.90;99.90
12446;DHT22;6287;50.984;7.022;2023-05-10T11:50:30;18.20;99.90
12446;DHT22;6287;50.984;7.022;2023-05-10T11:52:58;18.80;99.90
12446;DHT22;6287;50.984;7.022;2023-05-10T11:55:26;18.70;99.90
12446;DHT22;6287;50.984;7.022;2023-05-10T11:57:54;19.00;99.90
12446;DHT22;6287;50.984;7.022;2023-05-10T12:00:20;19.30;99.90
12446;DHT22;6287;50.984;7.022;2023-05-10T12:02:47;19.40;99.90
12446;DHT22;6287;50.984;7.022;2023-05-10T12:05:13;19.40;99.90
12446;DHT22;6287;50.984;7.022;2023-05-10T12:07:41;19.30;99.90
12446;DHT22;6287;50.984;7.022;2023-05-10T12:10:11;19.00;99.90
12446;DHT22;6287;50.984;7.022;2023-05-10T12:12:45;18.80;99.90
12446;DHT22;6287;50.984;7.022;2023-05-10T12:15:21;18.70;99.90
12446;DHT22;6287;50.984;7.022;2023-05-10T12:17:50;18.70;99.90
12446;DHT22;6287;50.984;7.022;2023-05-10T12:20:20;18.70;99.90
12446;DHT22;6287;50.984;7.022;2023-05-10T12:22:51;18.80;99.90
12446;DHT22;6287;50.984;7.022;2023-05-10T12:25:18;18.90;99.90
12446;DHT22;6287;50.984;7.022;2023-05-10T12:27:57;19.00;99.90
12446;DHT22;6287;50.984;7.022;2023-05-10T12:30:26;19.10;99.90
12446;DHT22;6287;50.984;7.022;2023-05-10T12:33:08;19.10;99.90
12446;DHT22;6287;50.984;7.022;2023-05-10T12:35:48;19.10;99.90
12446;DHT22;6287;50.984;7.022;2023-05-10T12:38:33;19.10;99.90
12446;DHT22;6287;50.984;7.022;2023-05-10T12:41:04;19.30;99.90
12446;DHT22;6287;50.984;7.022;2023-05-10T12:43:31;19.30;99.90
12446;DHT22;6287;50.984;7.022;2023-05-10T12:45:57;19.40;99.90
12446;DHT22;6287;50.984;7.022;2023-05-10T12:48:25;19.40;99.90
12446;DHT22;6287;50.984;7.022;2023-05-10T12:50:51;19.60;99.90
12446;DHT22;6287;50.984;7.022;2023-05-10T12:53:17;20.00;99.90
12446;DHT22;6287;50.984;7.022;2023-05-10T12:55:45;20.20;99.90
12446;DHT22;6287;50.984;7.022;2023-05-10T12:58:13;20.40;99.90
12446;DHT22;6287;50.984;7.022;2023-05-10T13:00:41;20.60;99.90
12446;DHT22;6287;50.984;7.022;2023-05-10T13:03:07;20.70;99.90
12446;DHT22;6287;50.984;7.022;2023-05-10T13:05:33;20.90;99.90
12446;DHT22;6287;50.984;7.022;2023-05-10T13:07:58;21.00;99.90
12446;DHT22;6287;50.984;7.022;2023-05-10T13:10:24;21.10;99.90
12446;DHT22;6287;50.984;7.022;2023-05-10T13:12:52;21.20;99.90
12446;DHT22;6287;50.984;7.022;2023-05-10T13:15:17;21.30;99.90
12446;DHT22;6287;50.984;7.022;2023-05-10T13:17:43;21.70;99.90
12446;DHT22;6287;50.984;7.022;2023-05-10T13:20:13;21.90;99.90
12446;DHT22;6287;50.984;7.022;2023-05-10T13:22:45;22.00;99.90
12446;DHT22;6287;50.984;7.022;2023-05-10T13:25:12;22.20;99.90
12446;DHT22;6287;50.984;7.022;2023-05-10T13:27:40;22.30;99.90
12446;DHT22;6287;50.984;7.022;2023-05-10T13:30:07;22.40;99.90
12446;DHT22;6287;50.984;7.022;2023-05-10T13:32:33;22.80;99.90
12446;DHT22;6287;50.984;7.022;2023-05-10T13:35:02;23.30;99.90
12446;DHT22;6287;50.984;7.022;2023-05-10T13:37:37;23.80;99.90
12446;DHT22;6287;50.984;7.022;2023-05-10T13:40:03;24.20;99.90
12446;DHT22;6287;50.984;7.022;2023-05-10T13:42:31;24.50;99.90
12446;DHT22;6287;50.984;7.022;2023-05-10T13:44:59;24.90;99.90
12446;DHT22;6287;50.984;7.022;2023-05-10T13:47:29;25.40;98.60
12446;DHT22;6287;50.984;7.022;2023-05-10T13:49:55;25.80;98.30
12446;DHT22;6287;50.984;7.022;2023-05-10T13:52:21;26.10;97.60
12446;DHT22;6287;50.984;7.022;2023-05-10T13:54:49;26.40;95.90
12446;DHT22;6287;50.984;7.022;2023-05-10T13:57:20;26.80;96.70
12446;DHT22;6287;50.984;7.022;2023-05-10T13:59:45;26.90;94.00
12446;DHT22;6287;50.984;7.022;2023-05-10T14:02:11;26.70;94.50
12446;DHT22;6287;50.984;7.022;2023-05-10T14:04:40;26.30;94.80
12446;DHT22;6287;50.984;7.022;2023-05-10T14:07:06;25.80;94.60
12446;DHT22;6287;50.984;7.022;2023-05-10T14:09:31;25.40;96.30
12446;DHT22;6287;50.984;7.022;2023-05-10T14:11:57;25.00;97.50
12446;DHT22;6287;50.984;7.022;2023-05-10T14:14:23;24.90;96.20
12446;DHT22;6287;50.984;7.022;2023-05-10T14:16:48;24.80;96.80
12446;DHT22;6287;50.984;7.022;2023-05-10T14:19:14;24.70;96.90
12446;DHT22;6287;50.984;7.022;2023-05-10T14:21:42;24.70;96.20
12446;DHT22;6287;50.984;7.022;2023-05-10T14:24:08;24.50;96.10
12446;DHT22;6287;50.984;7.022;2023-05-10T14:26:36;24.40;97.40
12446;DHT22;6287;50.984;7.022;2023-05-10T14:29:04;24.50;98.00
12446;DHT22;6287;50.984;7.022;2023-05-10T14:31:30;24.30;95.90
12446;DHT22;6287;50.984;7.022;2023-05-10T14:34:00;24.40;98.40
12446;DHT22;6287;50.984;7.022;2023-05-10T14:36:28;24.50;97.10
12446;DHT22;6287;50.984;7.022;2023-05-10T14:38:56;24.50;98.20
12446;DHT22;6287;50.984;7.022;2023-05-10T14:41:24;24.50;97.30
12446;DHT22;6287;50.984;7.022;2023-05-10T14:43:50;24.30;97.00
12446;DHT22;6287;50.984;7.022;2023-05-10T14:46:15;24.10;98.00
12446;DHT22;6287;50.984;7.022;2023-05-10T14:48:43;23.90;97.40
12446;DHT22;6287;50.984;7.022;2023-05-10T14:51:09;23.70;98.90
12446;DHT22;6287;50.984;7.022;2023-05-10T14:53:34;23.40;98.20
12446;DHT22;6287;50.984;7.022;2023-05-10T14:56:02;22.70;99.00
12446;DHT22;6287;50.984;7.022;2023-05-10T14:58:33;22.60;99.90
12446;DHT22;6287;50.984;7.022;2023-05-10T15:00:58;22.10;99.90
12446;DHT22;6287;50.984;7.022;2023-05-10T15:03:24;21.70;99.90
12446;DHT22;6287;50.984;7.022;2023-05-10T15:05:50;21.30;99.90
12446;DHT22;6287;50.984;7.022;2023-05-10T15:08:18;21.00;99.90
12446;DHT22;6287;50.984;7.022;2023-05-10T15:10:44;20.60;99.90
12446;DHT22;6287;50.984;7.022;2023-05-10T15:13:10;20.30;99.90
12446;DHT22;6287;50.984;7.022;2023-05-10T15:15:35;20.00;99.90
12446;DHT22;6287;50.984;7.022;2023-05-10T15:18:01;19.90;99.90
12446;DHT22;6287;50.984;7.022;2023-05-10T15:20:26;19.60;99.90
12446;DHT22;6287;50.984;7.022;2023-05-10T15:22:54;19.40;99.90
12446;DHT22;6287;50.984;7.022;2023-05-10T15:25:20;19.30;99.90
12446;DHT22;6287;50.984;7.022;2023-05-10T15:27:48;19.10;99.90
12446;DHT22;6287;50.984;7.022;2023-05-10T15:30:13;19.00;99.90
12446;DHT22;6287;50.984;7.022;2023-05-10T15:32:41;18.70;99.90
12446;DHT22;6287;50.984;7.022;2023-05-10T15:35:08;18.60;99.90
12446;DHT22;6287;50.984;7.022;2023-05-10T15:37:34;18.40;99.90
12446;DHT22;6287;50.984;7.022;2023-05-10T15:40:01;18.40;99.90
12446;DHT22;6287;50.984;7.022;2023-05-10T15:42:31;18.30;99.90
12446;DHT22;6287;50.984;7.022;2023-05-10T15:45:01;18.20;99.90
12446;DHT22;6287;50.984;7.022;2023-05-10T15:47:29;18.10;99.90
12446;DHT22;6287;50.984;7.022;2023-05-10T15:49:56;18.00;99.90
12446;DHT22;6287;50.984;7.022;2023-05-10T15:52:21;17.90;99.90
12446;DHT22;6287;50.984;7.022;2023-05-10T15:54:50;17.70;99.90
12446;DHT22;6287;50.984;7.022;2023-05-10T15:57:18;17.50;99.90
12446;DHT22;6287;50.984;7.022;2023-05-10T15:59:48;17.40;99.90
12446;DHT22;6287;50.984;7.022;2023-05-10T16:02:16;17.60;99.90
12446;DHT22;6287;50.984;7.022;2023-05-10T16:04:46;17.10;99.90
12446;DHT22;6287;50.984;7.022;2023-05-10T16:07:14;17.10;99.90
12446;DHT22;6287;50.984;7.022;2023-05-10T16:09:41;17.20;99.90
12446;DHT22;6287;50.984;7.022;2023-05-10T16:12:09;17.00;99.90
12446;DHT22;6287;50.984;7.022;2023-05-10T16:14:39;17.20;99.90
12446;DHT22;6287;50.984;7.022;2023-05-10T16:17:05;16.90;99.90
12446;DHT22;6287;50.984;7.022;2023-05-10T16:22:00;16.90;99.90
12446;DHT22;6287;50.984;7.022;2023-05-10T16:24:29;16.90;99.90
12446;DHT22;6287;50.984;7.022;2023-05-10T16:26:54;16.90;99.90
12446;DHT22;6287;50.984;7.022;2023-05-10T16:29:20;17.00;99.90
12446;DHT22;6287;50.984;7.022;2023-05-10T16:31:46;17.10;99.90
12446;DHT22;6287;50.984;7.022;2023-05-10T16:34:11;17.00;99.90
12446;DHT22;6287;50.984;7.022;2023-05-10T16:36:39;17.20;99.90